Time,TemperatureF,DewpointF,PressureIn,WindDirection,WindDirectionDegrees,WindSpeedMPH,WindSpeedGustMPH,Humidity,HourlyPrecipIn,Conditions,Clouds,dailyrainin,SoftwareType,DateUTC
2013-07-09 00:00:00,70.9,65.1,29.97,SSW,202,1.0,5.0,82,0.00,,,-99.99,WeatherLink 5.6,2013-07-09 04:00:00,
2013-07-09 00:30:00,70.5,65.1,29.97,SW,225,0.0,1.0,83,0.00,,,-99.99,WeatherLink 5.6,2013-07-09 04:30:00,
2013-07-09 01:00:00,71.0,64.9,29.97,SW,225,0.0,3.0,81,0.00,,,-99.99,WeatherLink 5.6,2013-07-09 05:00:00,
2013-07-09 01:30:00,71.1,65.0,29.94,SW,225,0.0,5.0,81,0.00,,,-99.99,WeatherLink 5.6,2013-07-09 05:30:00,
2013-07-09 02:00:00,70.2,65.1,29.95,SSW,202,1.0,6.0,84,0.00,,,-99.99,WeatherLink 5.6,2013-07-09 06:00:00,
2013-07-09 02:30:00,70.1,65.0,29.94,SSW,202,0.0,3.0,84,0.00,,,-99.99,WeatherLink 5.6,2013-07-09 06:30:00,
2013-07-09 03:00:00,68.9,64.5,29.93,SSW,202,0.0,3.0,86,0.00,,,-99.99,WeatherLink 5.6,2013-07-09 07:00:00,
2013-07-09 03:30:00,68.1,65.1,29.94,South,180,1.0,5.0,90,0.00,,,-99.99,WeatherLink 5.6,2013-07-09 07:30:00,
2013-07-09 04:00:00,67.8,65.4,29.94,South,180,2.0,9.0,92,0.00,,,-99.99,WeatherLink 5.6,2013-07-09 08:00:00,
2013-07-09 04:30:00,67.2,64.8,29.95,South,180,0.0,6.0,92,0.00,,,-99.99,WeatherLink 5.6,2013-07-09 08:30:00,
2013-07-09 05:00:00,68.1,64.1,29.95,South,180,0.0,4.0,87,0.00,,,-99.99,WeatherLink 5.6,2013-07-09 09:00:00,
2013-07-09 05:30:00,68.1,64.1,29.96,South,180,1.0,7.0,87,0.00,,,-99.99,WeatherLink 5.6,2013-07-09 09:30:00,
2013-07-09 06:00:00,67.9,63.6,29.97,South,180,0.0,5.0,86,0.00,,,-99.99,WeatherLink 5.6,2013-07-09 10:00:00,
2013-07-09 06:30:00,69.3,62.9,29.96,SW,225,0.0,2.0,80,0.00,,,-99.99,WeatherLink 5.6,2013-07-09 10:30:00,
2013-07-09 07:00:00,69.2,62.8,29.96,SW,225,0.0,1.0,80,0.00,,,-99.99,WeatherLink 5.6,2013-07-09 11:00:00,
2013-07-09 07:30:00,69.3,62.9,29.97,WSW,247,0.0,4.0,80,0.00,,,-99.99,WeatherLink 5.6,2013-07-09 11:30:00,
2013-07-09 08:00:00,70.1,63.6,29.96,West,270,1.0,6.0,80,0.00,,,-99.99,WeatherLink 5.6,2013-07-09 12:00:00,
2013-07-09 08:30:00,72.2,65.0,29.96,West,270,3.0,9.0,78,0.00,,,-99.99,WeatherLink 5.6,2013-07-09 12:30:00,
2013-07-09 09:00:00,73.3,67.1,29.97,WNW,292,2.0,11.0,81,0.00,,,-99.99,WeatherLink 5.6,2013-07-09 13:00:00,
2013-07-09 09:30:00,74.4,68.2,29.96,NW,315,1.0,6.0,81,0.00,,,-99.99,WeatherLink 5.6,2013-07-09 13:30:00,
2013-07-09 10:00:00,75.0,69.1,29.96,WNW,292,1.0,9.0,82,0.00,,,-99.99,WeatherLink 5.6,2013-07-09 14:00:00,
2013-07-09 10:30:00,75.2,69.0,29.96,WNW,292,1.0,9.0,81,0.00,,,-99.99,WeatherLink 5.6,2013-07-09 14:30:00,
2013-07-09 11:00:00,75.4,68.4,29.96,NW,315,2.0,12.0,79,0.00,,,-99.99,WeatherLink 5.6,2013-07-09 15:00:00,
2013-07-09 11:30:00,76.9,69.5,29.95,NW,315,2.0,11.0,78,0.00,,,-99.99,WeatherLink 5.6,2013-07-09 15:30:00,
2013-07-09 12:00:00,77.8,68.4,29.94,West,270,1.0,7.0,73,0.00,,,-99.99,WeatherLink 5.6,2013-07-09 16:00:00,
2013-07-09 12:30:00,79.2,72.1,29.95,West,270,1.0,7.0,79,0.00,,,-99.99,WeatherLink 5.6,2013-07-09 16:30:00,
2013-07-09 13:00:00,78.0,71.7,29.94,South,180,1.0,7.0,81,0.00,,,-99.99,WeatherLink 5.6,2013-07-09 17:00:00,
2013-07-09 13:30:00,78.4,71.3,29.94,South,180,1.0,10.0,79,0.00,,,-99.99,WeatherLink 5.6,2013-07-09 17:30:00,
2013-07-09 14:00:00,77.4,70.0,29.93,South,180,1.0,7.0,78,0.00,,,-99.99,WeatherLink 5.6,2013-07-09 18:00:00,
2013-07-09 14:30:00,77.3,71.0,29.92,South,180,1.0,7.0,81,0.00,,,-99.99,WeatherLink 5.6,2013-07-09 18:30:00,
2013-07-09 15:00:00,76.0,70.5,29.93,South,180,2.0,11.0,83,0.02,,,-99.99,WeatherLink 5.6,2013-07-09 19:00:00,
2013-07-09 15:30:00,73.1,71.0,29.93,SW,225,1.0,9.0,93,0.09,,,-99.99,WeatherLink 5.6,2013-07-09 19:30:00,
2013-07-09 16:00:00,74.9,70.4,29.91,North,-999,0.0,0.0,86,0.07,,,-99.99,WeatherLink 5.6,2013-07-09 20:00:00,
2013-07-09 16:30:00,77.4,71.5,29.89,SSE,157,0.0,4.0,82,0.00,,,-99.99,WeatherLink 5.6,2013-07-09 20:30:00,
2013-07-09 17:00:00,78.5,71.4,29.87,SSE,157,1.0,7.0,79,0.00,,,-99.99,WeatherLink 5.6,2013-07-09 21:00:00,
2013-07-09 17:30:00,78.6,71.9,29.88,South,180,0.0,5.0,80,0.00,,,-99.99,WeatherLink 5.6,2013-07-09 21:30:00,
2013-07-09 18:00:00,77.1,70.8,29.89,SSW,202,0.0,3.0,81,0.00,,,-99.99,WeatherLink 5.6,2013-07-09 22:00:00,
2013-07-09 18:30:00,77.0,70.0,29.89,SW,225,0.0,5.0,79,0.00,,,-99.99,WeatherLink 5.6,2013-07-09 22:30:00,
2013-07-09 19:00:00,76.9,69.1,29.88,North,-999,0.0,0.0,77,0.00,,,-99.99,WeatherLink 5.6,2013-07-09 23:00:00,
2013-07-09 19:30:00,76.6,70.7,29.88,North,-999,0.0,0.0,82,0.00,,,-99.99,WeatherLink 5.6,2013-07-09 23:30:00,
2013-07-09 20:00:00,75.5,68.9,29.88,North,-999,0.0,0.0,80,0.00,,,-99.99,WeatherLink 5.6,2013-07-10 00:00:00,
2013-07-09 20:30:00,75.2,69.3,29.87,North,-999,0.0,0.0,82,0.00,,,-99.99,WeatherLink 5.6,2013-07-10 00:30:00,
2013-07-09 21:00:00,75.1,68.9,29.89,North,-999,0.0,0.0,81,0.00,,,-99.99,WeatherLink 5.6,2013-07-10 01:00:00,
2013-07-09 21:30:00,75.0,69.1,29.88,North,-999,0.0,0.0,82,0.00,,,-99.99,WeatherLink 5.6,2013-07-10 01:30:00,
2013-07-09 22:00:00,74.6,69.1,29.89,SSW,202,0.0,5.0,83,0.00,,,-99.99,WeatherLink 5.6,2013-07-10 02:00:00,
2013-07-09 22:30:00,74.2,68.7,29.90,South,180,1.0,6.0,83,0.00,,,-99.99,WeatherLink 5.6,2013-07-10 02:30:00,
2013-07-09 23:00:00,73.7,68.9,29.89,South,180,1.0,5.0,85,0.00,,,-99.99,WeatherLink 5.6,2013-07-10 03:00:00,
2013-07-09 23:30:00,73.8,69.3,29.88,South,180,1.0,6.0,86,0.00,,,-99.99,WeatherLink 5.6,2013-07-10 03:30:00,